createdAt,value
2018-04-02T00:00:20.846Z,96979.91
2018-04-02T00:00:52.478Z,96987.55
2018-04-02T00:01:24.106Z,96985.41
2018-04-02T00:01:55.730Z,96982.92
2018-04-02T00:02:27.357Z,96985.47
2018-04-02T00:02:58.986Z,96985.53
2018-04-02T00:03:30.610Z,96982.54
2018-04-02T00:04:02.239Z,96988.94
2018-04-02T00:04:33.870Z,96990.72
2018-04-02T00:05:05.499Z,96981.00
2018-04-02T00:05:37.170Z,96989.52
2018-04-02T00:06:08.794Z,96986.14
2018-04-02T00:06:40.418Z,96995.12
2018-04-02T00:07:12.042Z,96988.77
2018-04-02T00:07:43.690Z,96995.58
2018-04-02T00:08:15.313Z,96994.30
2018-04-02T00:08:46.940Z,96993.90
2018-04-02T00:09:18.618Z,96998.56
2018-04-02T00:09:50.242Z,97012.22
2018-04-02T00:10:21.876Z,96991.42
2018-04-02T00:10:53.525Z,96996.13
2018-04-02T00:11:25.162Z,97006.30
2018-04-02T00:11:56.810Z,97010.20
2018-04-02T00:12:28.444Z,96991.09
2018-04-02T00:13:00.071Z,97005.55
2018-04-02T00:13:31.699Z,97004.70
2018-04-02T00:14:03.338Z,97007.33
2018-04-02T00:14:34.980Z,97001.83
2018-04-02T00:15:06.606Z,97000.63
2018-04-02T00:15:38.230Z,96998.02
2018-04-02T00:16:09.854Z,97003.94
2018-04-02T00:16:41.482Z,97007.77
2018-04-02T00:17:13.110Z,96998.91
2018-04-02T00:17:44.793Z,97005.29
2018-04-02T00:18:16.421Z,96995.09
2018-04-02T00:18:48.050Z,97005.33
2018-04-02T00:19:19.675Z,97006.59
2018-04-02T00:19:51.298Z,97000.70
2018-04-02T00:20:22.926Z,97001.90
2018-04-02T00:20:54.546Z,97005.34
2018-04-02T00:21:26.174Z,96998.17
2018-04-02T00:21:57.802Z,97014.23
2018-04-02T00:22:29.438Z,97005.66
2018-04-02T00:23:01.106Z,97007.75
2018-04-02T00:23:32.734Z,97005.62
2018-04-02T00:24:04.393Z,97014.55
2018-04-02T00:24:36.018Z,97000.58
2018-04-02T00:25:07.649Z,97014.50
2018-04-02T00:25:39.278Z,97010.22
2018-04-02T00:26:10.906Z,97004.20
2018-04-02T00:26:42.534Z,97012.28
2018-04-02T00:27:14.174Z,97010.56
2018-04-02T00:27:45.846Z,97010.11
2018-04-02T00:28:17.470Z,97019.81
2018-04-02T00:28:49.098Z,97016.73
2018-04-02T00:29:20.722Z,97020.02
2018-04-02T00:29:52.345Z,97008.47
2018-04-02T00:30:23.970Z,97011.33
2018-04-02T00:30:55.603Z,97003.94
2018-04-02T00:31:27.230Z,97013.14
2018-04-02T00:31:58.858Z,97013.06
2018-04-02T00:32:30.499Z,97017.66
2018-04-02T00:33:02.164Z,97015.08
2018-04-02T00:33:33.799Z,97019.33
2018-04-02T00:34:05.470Z,97019.26
2018-04-02T00:34:37.095Z,97016.38
2018-04-02T00:35:08.726Z,97017.98
2018-04-02T00:35:40.350Z,97022.65
2018-04-02T00:36:11.976Z,97016.62
2018-04-02T00:36:43.598Z,97028.50
2018-04-02T00:37:15.226Z,97020.36
2018-04-02T00:37:46.859Z,97022.89
2018-04-02T00:38:18.486Z,97025.44
2018-04-02T00:38:50.153Z,97013.50
2018-04-02T00:39:21.778Z,97026.61
2018-04-02T00:39:53.401Z,97022.77
2018-04-02T00:40:25.031Z,97016.82
2018-04-02T00:40:56.654Z,97023.62
2018-04-02T00:41:28.304Z,97019.83
2018-04-02T00:41:59.934Z,97027.45
2018-04-02T00:42:31.610Z,97026.94
2018-04-02T00:43:03.239Z,97025.97
2018-04-02T00:43:34.880Z,97036.00
2018-04-02T00:44:06.518Z,97023.58
2018-04-02T00:44:38.138Z,97031.19
2018-04-02T00:45:09.762Z,97034.59
2018-04-02T00:45:41.391Z,97032.72
2018-04-02T00:46:13.025Z,97029.75
2018-04-02T00:46:44.659Z,97032.70
2018-04-02T00:47:16.292Z,97022.05
2018-04-02T00:47:47.958Z,97029.61
2018-04-02T00:48:19.582Z,97034.30
2018-04-02T00:48:51.291Z,97033.88
2018-04-02T00:49:22.905Z,97032.17
2018-04-02T00:49:54.569Z,97030.56
2018-04-02T00:50:26.199Z,97029.23
2018-04-02T00:50:57.870Z,97034.72
2018-04-02T00:51:30.090Z,97032.19
2018-04-02T00:52:01.715Z,97032.68
2018-04-02T00:52:33.342Z,97034.85
2018-04-02T00:53:05.007Z,97044.20
2018-04-02T00:53:36.634Z,97044.19
2018-04-02T00:54:08.264Z,97040.03
2018-04-02T00:54:39.907Z,97035.71
2018-04-02T00:55:11.534Z,97037.39
2018-04-02T00:55:43.210Z,97038.59
2018-04-02T00:56:14.833Z,97040.39
2018-04-02T00:56:46.466Z,97036.89
2018-04-02T00:57:18.098Z,97045.06
2018-04-02T00:57:49.731Z,97044.20
2018-04-02T00:58:21.405Z,97043.09
2018-04-02T00:58:53.029Z,97047.25
2018-04-02T00:59:24.653Z,97047.69
2018-04-02T00:59:56.289Z,97051.86
2018-04-02T01:00:27.918Z,97050.19
2018-04-02T01:00:59.558Z,97045.48
2018-04-02T01:01:31.198Z,97051.36
2018-04-02T01:02:02.822Z,97049.30
2018-04-02T01:02:34.446Z,97024.89
2018-04-02T01:03:06.070Z,97050.27
2018-04-02T01:03:37.733Z,97052.47
2018-04-02T01:04:09.390Z,97052.47
2018-04-02T01:04:41.014Z,97052.05
2018-04-02T01:05:12.646Z,97055.88
2018-04-02T01:05:44.336Z,97055.11
2018-04-02T01:06:15.996Z,97048.34
2018-04-02T01:06:47.617Z,97057.68
2018-04-02T01:07:19.242Z,97058.09
2018-04-02T01:07:50.916Z,97053.47
2018-04-02T01:08:22.541Z,97058.73
2018-04-02T01:08:54.183Z,97053.75
2018-04-02T01:09:25.813Z,97063.11
2018-04-02T01:09:57.446Z,97051.64
2018-04-02T01:10:29.074Z,97059.55
2018-04-02T01:11:00.702Z,97063.30
2018-04-02T01:11:32.325Z,97066.77
2018-04-02T01:12:03.946Z,97061.61
2018-04-02T01:12:35.570Z,97068.52
2018-04-02T01:13:07.237Z,97060.52
2018-04-02T01:13:38.866Z,97064.44
2018-04-02T01:14:10.494Z,97061.48
2018-04-02T01:14:42.230Z,97058.60
2018-04-02T01:15:13.853Z,97067.20
2018-04-02T01:15:45.478Z,97052.38
2018-04-02T01:16:17.104Z,97055.77
2018-04-02T01:16:48.774Z,97058.84
2018-04-02T01:17:20.415Z,97066.95
2018-04-02T01:17:52.038Z,97057.63
2018-04-02T01:18:23.672Z,97062.77
2018-04-02T01:18:55.299Z,97061.95
2018-04-02T01:19:26.931Z,97064.14
2018-04-02T01:19:58.559Z,97066.69
2018-04-02T01:20:30.187Z,97070.53
2018-04-02T01:21:01.819Z,97061.25
2018-04-02T01:21:33.454Z,97063.80
2018-04-02T01:22:05.150Z,97062.97
2018-04-02T01:22:36.781Z,97065.09
2018-04-02T01:23:08.406Z,97066.41
2018-04-02T01:23:40.031Z,97064.80
2018-04-02T01:24:11.659Z,97056.70
2018-04-02T01:24:43.287Z,97066.05
2018-04-02T01:25:14.910Z,97068.61
2018-04-02T01:25:46.550Z,97067.40
2018-04-02T01:26:18.173Z,97069.98
2018-04-02T01:26:49.802Z,97062.35
2018-04-02T01:27:21.483Z,97067.59
2018-04-02T01:27:53.119Z,97064.14
2018-04-02T01:28:24.742Z,97072.27
2018-04-02T01:28:56.373Z,97078.66
2018-04-02T01:29:28.018Z,97076.55
2018-04-02T01:29:59.647Z,97076.56
2018-04-02T01:30:31.298Z,97074.92
2018-04-02T01:31:02.927Z,97069.41
2018-04-02T01:31:34.550Z,97072.88
2018-04-02T01:32:06.178Z,97079.27
2018-04-02T01:32:37.850Z,97077.98
2018-04-02T01:33:09.482Z,97080.12
2018-04-02T01:33:41.166Z,97082.25
2018-04-02T01:34:12.791Z,97075.03
2018-04-02T01:34:44.414Z,97080.20
2018-04-02T01:35:16.038Z,97084.05
2018-04-02T01:35:47.666Z,97080.22
2018-04-02T01:36:19.291Z,97084.48
2018-04-02T01:36:50.926Z,97081.05
2018-04-02T01:37:22.550Z,97073.50
2018-04-02T01:37:54.178Z,97085.39
2018-04-02T01:38:25.809Z,97082.84
2018-04-02T01:38:57.473Z,97084.97
2018-04-02T01:39:29.097Z,97087.08
2018-04-02T01:40:00.722Z,97087.95
2018-04-02T01:40:32.349Z,97088.80
2018-04-02T01:41:03.973Z,97083.70
2018-04-02T01:41:35.598Z,97085.83
2018-04-02T01:42:07.234Z,97091.84
2018-04-02T01:42:38.867Z,97085.83
2018-04-02T01:43:10.490Z,97086.23
2018-04-02T01:43:42.119Z,97091.33
2018-04-02T01:44:13.785Z,97085.88
2018-04-02T01:44:45.415Z,97082.42
2018-04-02T01:45:17.115Z,97086.24
2018-04-02T01:45:48.746Z,97092.97
2018-04-02T01:46:20.374Z,97087.02
2018-04-02T01:46:52.015Z,97081.43
2018-04-02T01:47:23.646Z,97089.92
2018-04-02T01:47:55.278Z,97093.38
2018-04-02T01:48:26.903Z,97086.52
2018-04-02T01:48:58.525Z,97088.13
2018-04-02T01:49:30.151Z,97087.77
2018-04-02T01:50:01.824Z,97085.14
2018-04-02T01:50:33.467Z,97078.23
2018-04-02T01:51:05.090Z,97085.44
2018-04-02T01:51:36.714Z,97085.73
2018-04-02T01:52:08.342Z,97084.00
2018-04-02T01:52:39.970Z,97083.51
2018-04-02T01:53:11.594Z,97090.22
2018-04-02T01:53:43.225Z,97084.59
2018-04-02T01:54:14.851Z,97085.35
2018-04-02T01:54:46.474Z,97083.97
2018-04-02T01:55:18.159Z,97089.41
2018-04-02T01:55:49.786Z,97084.27
2018-04-02T01:56:21.410Z,97075.43
2018-04-02T01:56:53.332Z,97091.02
2018-04-02T01:57:24.963Z,97083.34
2018-04-02T01:57:56.593Z,97081.20
2018-04-02T01:58:28.218Z,97091.34
2018-04-02T01:58:59.855Z,97083.31
2018-04-02T01:59:31.486Z,97093.88
2018-04-02T02:00:03.115Z,97097.63
2018-04-02T02:00:34.742Z,97085.71
2018-04-02T02:01:06.370Z,97089.98
2018-04-02T02:01:37.998Z,97089.45
2018-04-02T02:02:09.643Z,97090.20
2018-04-02T02:02:41.288Z,97088.98
2018-04-02T02:03:12.925Z,97091.88
2018-04-02T02:03:44.550Z,97089.99
2018-04-02T02:04:16.214Z,97090.92
2018-04-02T02:04:47.848Z,97092.67
2018-04-02T02:05:19.478Z,97080.30
2018-04-02T02:05:51.126Z,97090.50
2018-04-02T02:06:22.772Z,97095.03
2018-04-02T02:06:54.438Z,97090.41
2018-04-02T02:07:26.061Z,97091.34
2018-04-02T02:07:57.694Z,97088.78
2018-04-02T02:08:29.318Z,97098.05
2018-04-02T02:09:00.947Z,97097.58
2018-04-02T02:09:32.582Z,97098.47
2018-04-02T02:10:04.206Z,97095.52
2018-04-02T02:10:35.834Z,97097.58
2018-04-02T02:11:07.458Z,97097.63
2018-04-02T02:11:39.081Z,97097.67
2018-04-02T02:12:10.754Z,97094.75
2018-04-02T02:12:42.377Z,97095.95
2018-04-02T02:13:14.007Z,97099.78
2018-04-02T02:13:45.635Z,97098.52
2018-04-02T02:14:17.302Z,97100.69
2018-04-02T02:14:48.926Z,97100.64
2018-04-02T02:15:20.549Z,97092.13
2018-04-02T02:15:52.174Z,97095.45
2018-04-02T02:16:23.802Z,97100.08
2018-04-02T02:16:55.431Z,97095.48
2018-04-02T02:17:27.160Z,97095.70
2018-04-02T02:17:58.785Z,97097.69
2018-04-02T02:18:30.467Z,97099.23
2018-04-02T02:19:02.099Z,97098.17
2018-04-02T02:19:33.730Z,97099.66
2018-04-02T02:20:05.349Z,97103.67
2018-04-02T02:20:36.994Z,97096.17
2018-04-02T02:21:08.618Z,97097.05
2018-04-02T02:21:40.242Z,97097.02
2018-04-02T02:22:11.866Z,97105.44
2018-04-02T02:22:43.494Z,97106.27
2018-04-02T02:23:15.118Z,97099.48
2018-04-02T02:23:46.794Z,97097.68
2018-04-02T02:24:18.458Z,97097.68
2018-04-02T02:24:50.090Z,97096.77
2018-04-02T02:25:21.714Z,97094.64
2018-04-02T02:25:53.338Z,97098.48
2018-04-02T02:26:24.986Z,97100.67
2018-04-02T02:26:56.615Z,97099.77
2018-04-02T02:27:28.241Z,97091.63
2018-04-02T02:27:59.870Z,97098.11
2018-04-02T02:28:31.549Z,97102.26
2018-04-02T02:29:03.154Z,97097.17
2018-04-02T02:29:34.821Z,97100.23
2018-04-02T02:30:06.447Z,97096.35
2018-04-02T02:30:38.124Z,97098.55
2018-04-02T02:31:09.747Z,97092.58
2018-04-02T02:31:41.378Z,97096.77
2018-04-02T02:32:13.011Z,97096.94
2018-04-02T02:32:44.641Z,97098.74
2018-04-02T02:33:16.271Z,97100.54
2018-04-02T02:33:47.907Z,97101.41
2018-04-02T02:34:19.536Z,97101.06
2018-04-02T02:34:51.157Z,97101.91
2018-04-02T02:35:22.783Z,97101.55
2018-04-02T02:35:54.406Z,97108.39
2018-04-02T02:36:26.032Z,97104.22
2018-04-02T02:36:57.662Z,97105.09
2018-04-02T02:37:29.295Z,97105.06
2018-04-02T02:38:00.921Z,97111.95
2018-04-02T02:38:32.551Z,97108.14
2018-04-02T02:39:04.195Z,97110.72
2018-04-02T02:39:35.877Z,97109.86
2018-04-02T02:40:07.516Z,97108.73
2018-04-02T02:40:39.145Z,97102.39
2018-04-02T02:41:10.772Z,97102.48
2018-04-02T02:41:42.398Z,97113.61
2018-04-02T02:42:14.044Z,97106.41
2018-04-02T02:42:45.694Z,97114.06
2018-04-02T02:43:17.338Z,97108.95
2018-04-02T02:43:48.974Z,97106.81
2018-04-02T02:44:20.607Z,97110.23
2018-04-02T02:44:52.253Z,97106.38
2018-04-02T02:45:23.891Z,97113.26
2018-04-02T02:45:55.519Z,97115.34
2018-04-02T02:46:27.142Z,97112.41
2018-04-02T02:46:58.774Z,97112.42
2018-04-02T02:47:30.423Z,97109.91
2018-04-02T02:48:02.061Z,97114.58
2018-04-02T02:48:33.687Z,97111.17
2018-04-02T02:49:05.328Z,97113.71
2018-04-02T02:49:36.953Z,97111.98
2018-04-02T02:50:08.618Z,97118.36
2018-04-02T02:50:40.242Z,97108.69
2018-04-02T02:51:11.866Z,97114.20
2018-04-02T02:51:43.491Z,97118.49
2018-04-02T02:52:15.122Z,97114.28
2018-04-02T02:52:46.754Z,97112.31
2018-04-02T02:53:18.382Z,97110.11
2018-04-02T02:53:50.015Z,97114.38
2018-04-02T02:54:21.682Z,97117.45
2018-04-02T02:54:53.306Z,97114.89
2018-04-02T02:55:24.938Z,97119.20
2018-04-02T02:55:56.575Z,97126.44
2018-04-02T02:56:28.198Z,97124.31
2018-04-02T02:56:59.867Z,97120.95
2018-04-02T02:57:31.494Z,97121.80
2018-04-02T02:58:03.122Z,97120.16
2018-04-02T02:58:34.750Z,97126.88
2018-04-02T02:59:06.379Z,97126.88
2018-04-02T02:59:38.006Z,97121.80
2018-04-02T03:00:09.642Z,97130.77
2018-04-02T03:00:41.265Z,97130.77
2018-04-02T03:01:12.946Z,97132.48
2018-04-02T03:01:44.575Z,97129.92
2018-04-02T03:02:16.207Z,97127.82
2018-04-02T03:02:47.834Z,97124.40
2018-04-02T03:03:19.467Z,97127.30
2018-04-02T03:03:51.094Z,97125.16
2018-04-02T03:04:22.718Z,97121.27
2018-04-02T03:04:54.363Z,97124.64
2018-04-02T03:05:26.007Z,97126.79
2018-04-02T03:05:57.639Z,97126.35
2018-04-02T03:06:29.307Z,97126.27
2018-04-02T03:07:00.940Z,97124.91
2018-04-02T03:07:32.624Z,97124.98
2018-04-02T03:08:04.246Z,97126.19
2018-04-02T03:08:35.871Z,97122.31
2018-04-02T03:09:07.503Z,97130.44
2018-04-02T03:09:39.139Z,97125.77
2018-04-02T03:10:10.771Z,97128.32
2018-04-02T03:10:42.395Z,97127.73
2018-04-02T03:11:14.020Z,97132.83
2018-04-02T03:11:45.643Z,97129.77
2018-04-02T03:12:17.270Z,97132.30
2018-04-02T03:12:48.938Z,97128.05
2018-04-02T03:13:20.568Z,97124.63
2018-04-02T03:13:52.227Z,97130.52
2018-04-02T03:14:23.854Z,97129.07
2018-04-02T03:14:55.478Z,97127.37
2018-04-02T03:15:27.102Z,97129.89
2018-04-02T03:15:58.729Z,97120.11
2018-04-02T03:16:30.358Z,97128.91
2018-04-02T03:17:01.982Z,97129.42
2018-04-02T03:17:33.662Z,97131.84
2018-04-02T03:18:05.295Z,97136.14
2018-04-02T03:18:36.927Z,97129.74
2018-04-02T03:19:08.549Z,97133.55
2018-04-02T03:19:40.170Z,97134.39
2018-04-02T03:20:11.798Z,97130.14
2018-04-02T03:20:43.423Z,97127.09
2018-04-02T03:21:15.049Z,97130.06
2018-04-02T03:21:46.674Z,97130.00
2018-04-02T03:22:18.303Z,97136.84
2018-04-02T03:22:49.978Z,97132.63
2018-04-02T03:23:21.607Z,97138.98
2018-04-02T03:23:53.234Z,97134.14
2018-04-02T03:24:24.862Z,97121.41
2018-04-02T03:24:56.490Z,97140.54
2018-04-02T03:25:28.110Z,97140.95
2018-04-02T03:25:59.778Z,97137.18
2018-04-02T03:26:31.402Z,97143.47
2018-04-02T03:27:03.026Z,97149.87
2018-04-02T03:27:34.649Z,97142.70
2018-04-02T03:28:06.278Z,97139.77
2018-04-02T03:28:37.902Z,97142.66
2018-04-02T03:29:09.530Z,97134.23
2018-04-02T03:29:41.158Z,97141.86
2018-04-02T03:30:12.795Z,97143.14
2018-04-02T03:30:44.423Z,97146.48
2018-04-02T03:31:16.047Z,97146.45
2018-04-02T03:31:47.671Z,97144.75
2018-04-02T03:32:19.298Z,97146.40
2018-04-02T03:32:50.922Z,97148.56
2018-04-02T03:33:22.559Z,97145.55
2018-04-02T03:33:54.190Z,97148.09
2018-04-02T03:34:25.909Z,97147.23
2018-04-02T03:34:57.566Z,97146.38
2018-04-02T03:35:29.186Z,97144.22
2018-04-02T03:36:00.845Z,97142.39
2018-04-02T03:36:32.479Z,97137.86
2018-04-02T03:37:04.113Z,97144.67
2018-04-02T03:37:35.738Z,97143.89
2018-04-02T03:38:07.374Z,97147.23
2018-04-02T03:38:39.002Z,97147.72
2018-04-02T03:39:10.626Z,97146.97
2018-04-02T03:39:42.254Z,97144.87
2018-04-02T03:40:13.918Z,97138.91
2018-04-02T03:40:45.544Z,97145.20
2018-04-02T03:41:17.213Z,97151.98
2018-04-02T03:41:48.838Z,97147.72
2018-04-02T03:42:20.466Z,97148.59
2018-04-02T03:42:52.090Z,97148.56
2018-04-02T03:43:23.715Z,97150.64
2018-04-02T03:43:55.342Z,97155.30
2018-04-02T03:44:26.970Z,97144.73
2018-04-02T03:44:58.598Z,97154.03
2018-04-02T03:45:30.271Z,97149.11
2018-04-02T03:46:01.899Z,97151.25
2018-04-02T03:46:33.525Z,97148.76
2018-04-02T03:47:05.151Z,97153.02
2018-04-02T03:47:36.775Z,97154.31
2018-04-02T03:48:08.402Z,97153.89
2018-04-02T03:48:40.027Z,97156.97
2018-04-02T03:49:11.650Z,97153.66
2018-04-02T03:49:43.350Z,97154.16
2018-04-02T03:50:14.978Z,97152.90
2018-04-02T03:50:46.602Z,97150.48
2018-04-02T03:51:18.234Z,97156.38
2018-04-02T03:51:49.866Z,97155.61
2018-04-02T03:52:21.489Z,97152.30
2018-04-02T03:52:53.110Z,97149.73
2018-04-02T03:53:24.763Z,97154.06
2018-04-02T03:53:56.395Z,97160.91
2018-04-02T03:54:28.023Z,97150.85
2018-04-02T03:54:59.727Z,97148.77
2018-04-02T03:55:31.407Z,97152.69
2018-04-02T03:56:03.038Z,97157.45
2018-04-02T03:56:34.665Z,97155.32
2018-04-02T03:57:06.339Z,97162.14
2018-04-02T03:57:37.967Z,97158.34
2018-04-02T03:58:09.592Z,97158.40
2018-04-02T03:58:41.222Z,97149.93
2018-04-02T03:59:12.846Z,97152.91
2018-04-02T03:59:44.470Z,97157.22
2018-04-02T04:00:16.138Z,97163.19
2018-04-02T04:00:47.761Z,97161.96
2018-04-02T04:01:19.391Z,97167.50
2018-04-02T04:01:51.022Z,97161.56
2018-04-02T04:02:22.715Z,97157.37
2018-04-02T04:02:54.355Z,97159.88
2018-04-02T04:03:25.978Z,97157.80
2018-04-02T04:03:57.602Z,97159.44
2018-04-02T04:04:29.226Z,97161.12
2018-04-02T04:05:00.894Z,97160.27
2018-04-02T04:05:32.523Z,97167.09
2018-04-02T04:06:04.146Z,97158.27
2018-04-02T04:06:35.830Z,97162.91
2018-04-02T04:07:07.458Z,97155.36
2018-04-02T04:07:39.083Z,97160.86
2018-04-02T04:08:10.705Z,97161.73
2018-04-02T04:08:42.335Z,97166.41
2018-04-02T04:09:13.961Z,97162.69
2018-04-02T04:09:45.590Z,97162.75
2018-04-02T04:10:17.218Z,97168.26
2018-04-02T04:10:48.846Z,97159.42
2018-04-02T04:11:20.495Z,97163.20
2018-04-02T04:11:52.163Z,97160.28
2018-04-02T04:12:23.795Z,97160.73
2018-04-02T04:12:55.419Z,97163.77
2018-04-02T04:13:27.043Z,97163.84
2018-04-02T04:13:58.665Z,97165.53
2018-04-02T04:14:30.299Z,97166.83
2018-04-02T04:15:01.934Z,97164.70
2018-04-02T04:15:33.562Z,97170.67
2018-04-02T04:16:05.185Z,97170.24
2018-04-02T04:16:36.810Z,97180.02
2018-04-02T04:17:08.447Z,97166.48
2018-04-02T04:17:40.082Z,97169.89
2018-04-02T04:18:11.707Z,97166.91
2018-04-02T04:18:43.335Z,97173.29
2018-04-02T04:19:14.966Z,97171.19
2018-04-02T04:19:46.593Z,97171.70
2018-04-02T04:20:18.278Z,97164.86
2018-04-02T04:20:49.907Z,97170.39
2018-04-02T04:21:21.538Z,97167.83
2018-04-02T04:21:53.172Z,97177.19
2018-04-02T04:22:24.798Z,97167.01
2018-04-02T04:22:56.418Z,97172.08
2018-04-02T04:23:28.041Z,97174.22
2018-04-02T04:23:59.670Z,97169.54
2018-04-02T04:24:31.290Z,97178.02
2018-04-02T04:25:02.918Z,97174.56
2018-04-02T04:25:34.591Z,97171.58
2018-04-02T04:26:06.222Z,97169.72
2018-04-02T04:26:37.873Z,97173.06
2018-04-02T04:27:09.517Z,97170.76
2018-04-02T04:27:41.146Z,97182.23
2018-04-02T04:28:12.811Z,97178.72
2018-04-02T04:28:44.439Z,97173.53
2018-04-02T04:29:16.067Z,97178.06
2018-04-02T04:29:47.695Z,97174.30
2018-04-02T04:30:19.313Z,97176.28
2018-04-02T04:30:50.944Z,97173.63
2018-04-02T04:31:22.575Z,97177.01
2018-04-02T04:31:54.198Z,97177.34
2018-04-02T04:32:25.832Z,97182.38
2018-04-02T04:32:57.494Z,97175.14
2018-04-02T04:33:29.114Z,97173.87
2018-04-02T04:34:00.758Z,97172.59
2018-04-02T04:34:32.390Z,97178.11
2018-04-02T04:35:04.023Z,97181.52
2018-04-02T04:35:35.694Z,97179.33
2018-04-02T04:36:07.322Z,97178.91
2018-04-02T04:36:38.951Z,97184.42
2018-04-02T04:37:10.579Z,97180.17
2018-04-02T04:37:42.267Z,97182.99
2018-04-02T04:38:13.907Z,97181.70
2018-04-02T04:38:45.534Z,97180.50
2018-04-02T04:39:17.157Z,97186.81
2018-04-02T04:39:48.782Z,97183.77
2018-04-02T04:40:20.472Z,97191.41
2018-04-02T04:40:52.067Z,97188.41
2018-04-02T04:41:23.699Z,97190.55
2018-04-02T04:41:55.335Z,97190.56
2018-04-02T04:42:26.967Z,97187.56
2018-04-02T04:42:58.633Z,97185.43
2018-04-02T04:43:30.315Z,97188.43
2018-04-02T04:44:01.942Z,97189.69
2018-04-02T04:44:33.569Z,97182.49
2018-04-02T04:45:05.238Z,97189.26
2018-04-02T04:45:36.861Z,97187.93
2018-04-02T04:46:08.491Z,97192.52
2018-04-02T04:46:40.114Z,97189.52
2018-04-02T04:47:11.738Z,97195.41
2018-04-02T04:47:43.427Z,97196.23
2018-04-02T04:48:15.054Z,97192.41
2018-04-02T04:48:46.673Z,97192.41
2018-04-02T04:49:18.302Z,97194.45
2018-04-02T04:49:49.925Z,97195.30
2018-04-02T04:50:21.557Z,97202.93
2018-04-02T04:50:53.198Z,97194.89
2018-04-02T04:51:24.828Z,97194.44
2018-04-02T04:51:56.454Z,97195.70
2018-04-02T04:52:28.077Z,97194.44
2018-04-02T04:52:59.710Z,97197.41
2018-04-02T04:53:31.334Z,97200.30
2018-04-02T04:54:02.954Z,97196.39
2018-04-02T04:54:34.579Z,97195.47
2018-04-02T04:55:06.203Z,97196.81
2018-04-02T04:55:37.834Z,97190.02
2018-04-02T04:56:09.453Z,97197.27
2018-04-02T04:56:41.074Z,97205.30
2018-04-02T04:57:12.703Z,97199.28
2018-04-02T04:57:44.334Z,97198.43
2018-04-02T04:58:15.998Z,97198.41
2018-04-02T04:58:47.621Z,97199.64
2018-04-02T04:59:19.247Z,97197.99
2018-04-02T04:59:50.870Z,97192.47
2018-04-02T05:00:22.550Z,97192.98
2018-04-02T05:00:54.173Z,97200.22
2018-04-02T05:01:25.806Z,97196.75
2018-04-02T05:01:57.434Z,97194.69
2018-04-02T05:02:29.078Z,97198.51
2018-04-02T05:03:00.705Z,97194.27
2018-04-02T05:03:32.334Z,97204.45
2018-04-02T05:04:03.954Z,97201.94
2018-04-02T05:04:35.578Z,97198.84
2018-04-02T05:05:07.202Z,97201.41
2018-04-02T05:05:38.877Z,97203.52
2018-04-02T05:06:10.498Z,97201.56
2018-04-02T05:06:42.125Z,97198.51
2018-04-02T05:07:13.759Z,97198.43
2018-04-02T05:07:45.395Z,97203.13
2018-04-02T05:08:17.019Z,97208.71
2018-04-02T05:08:48.651Z,97209.60
2018-04-02T05:09:20.286Z,97205.77
2018-04-02T05:09:51.914Z,97209.58
2018-04-02T05:10:23.538Z,97205.82
2018-04-02T05:10:55.162Z,97211.72
2018-04-02T05:11:26.791Z,97211.28
2018-04-02T05:11:58.418Z,97220.63
2018-04-02T05:12:30.046Z,97212.20
2018-04-02T05:13:01.669Z,97212.99
2018-04-02T05:13:33.294Z,97213.04
2018-04-02T05:14:04.917Z,97218.58
2018-04-02T05:14:36.545Z,97210.51
2018-04-02T05:15:08.215Z,97213.17
2018-04-02T05:15:39.894Z,97216.58
2018-04-02T05:16:11.522Z,97214.88
2018-04-02T05:16:43.178Z,97218.83
2018-04-02T05:17:14.806Z,97223.03
2018-04-02T05:17:46.434Z,97216.28
2018-04-02T05:18:18.053Z,97216.28
2018-04-02T05:18:49.726Z,97217.95
2018-04-02T05:19:21.354Z,97218.75
2018-04-02T05:19:52.985Z,97226.75
2018-04-02T05:20:24.614Z,97214.01
2018-04-02T05:20:56.239Z,97221.68
2018-04-02T05:21:27.881Z,97224.62
2018-04-02T05:21:59.501Z,97223.02
2018-04-02T05:22:31.126Z,97224.74
2018-04-02T05:23:02.749Z,97224.40
2018-04-02T05:23:34.406Z,97224.74
2018-04-02T05:24:06.038Z,97219.81
2018-04-02T05:24:37.662Z,97223.12
2018-04-02T05:25:09.285Z,97223.62
2018-04-02T05:25:40.914Z,97232.48
2018-04-02T05:26:12.538Z,97228.65
2018-04-02T05:26:44.201Z,97228.65
2018-04-02T05:27:15.875Z,97231.70
2018-04-02T05:27:47.526Z,97229.59
2018-04-02T05:28:19.150Z,97231.22
2018-04-02T05:28:50.789Z,97229.72
2018-04-02T05:29:22.418Z,97231.16
2018-04-02T05:29:54.050Z,97232.61
2018-04-02T05:30:25.674Z,97228.50
2018-04-02T05:30:57.301Z,97229.45
2018-04-02T05:31:29.582Z,97228.69
2018-04-02T05:32:01.206Z,97233.30
2018-04-02T05:32:32.890Z,97232.00
2018-04-02T05:33:04.518Z,97229.06
2018-04-02T05:33:36.146Z,97226.55
2018-04-02T05:34:07.769Z,97224.47
2018-04-02T05:34:39.393Z,97233.05
2018-04-02T05:35:11.025Z,97224.64
2018-04-02T05:35:42.646Z,97229.36
2018-04-02T05:36:14.278Z,97225.55
2018-04-02T05:36:45.911Z,97225.61
2018-04-02T05:37:17.542Z,97229.89
2018-04-02T05:37:49.214Z,97229.45
2018-04-02T05:38:20.838Z,97229.48
2018-04-02T05:38:52.462Z,97232.52
2018-04-02T05:39:24.086Z,97235.13
2018-04-02T05:39:55.713Z,97226.21
2018-04-02T05:40:27.342Z,97228.75
2018-04-02T05:40:58.970Z,97230.88
2018-04-02T05:41:30.599Z,97235.63
2018-04-02T05:42:02.253Z,97233.52
2018-04-02T05:42:33.882Z,97229.13
2018-04-02T05:43:05.557Z,97231.98
2018-04-02T05:43:37.178Z,97228.95
2018-04-02T05:44:08.798Z,97228.52
2018-04-02T05:44:40.422Z,97232.28
2018-04-02T05:45:12.082Z,97232.34
2018-04-02T05:45:43.706Z,97229.38
2018-04-02T05:46:15.330Z,97229.81
2018-04-02T05:46:46.954Z,97234.05
2018-04-02T05:47:18.586Z,97228.12
2018-04-02T05:47:50.209Z,97228.95
2018-04-02T05:48:21.873Z,97242.13
2018-04-02T05:48:53.508Z,97234.05
2018-04-02T05:49:25.143Z,97227.27
2018-04-02T05:49:56.971Z,97235.67
2018-04-02T05:50:28.598Z,97236.50
2018-04-02T05:51:00.304Z,97233.91
2018-04-02T05:51:31.910Z,97235.08
2018-04-02T05:52:03.566Z,97235.85
2018-04-02T05:52:35.190Z,97236.20
2018-04-02T05:53:06.814Z,97236.53
2018-04-02T05:53:38.442Z,97233.95
2018-04-02T05:54:10.068Z,97234.80
2018-04-02T05:54:41.690Z,97236.02
2018-04-02T05:55:13.357Z,97238.98
2018-04-02T05:55:44.986Z,97234.38
2018-04-02T05:56:16.613Z,97235.17
2018-04-02T05:56:48.278Z,97239.31
2018-04-02T05:57:19.911Z,97239.31
2018-04-02T05:57:51.554Z,97235.05
2018-04-02T05:58:23.177Z,97239.67
2018-04-02T05:58:54.802Z,97235.01
2018-04-02T05:59:26.430Z,97233.30
2018-04-02T05:59:58.063Z,97241.38
2018-04-02T06:00:29.686Z,97236.70
2018-04-02T06:01:01.314Z,97244.71
2018-04-02T06:01:32.943Z,97246.47
2018-04-02T06:02:04.592Z,97242.09
2018-04-02T06:02:36.222Z,97251.43
2018-04-02T06:03:07.846Z,97242.86
2018-04-02T06:03:39.514Z,97244.56
2018-04-02T06:04:11.149Z,97240.27
2018-04-02T06:04:42.769Z,97249.07
2018-04-02T06:05:14.459Z,97245.23
2018-04-02T06:05:46.052Z,97251.19
2018-04-02T06:06:17.718Z,97247.75
2018-04-02T06:06:49.345Z,97245.57
2018-04-02T06:07:21.014Z,97250.23
2018-04-02T06:07:52.642Z,97250.20
2018-04-02T06:08:24.266Z,97243.83
2018-04-02T06:08:55.894Z,97241.73
2018-04-02T06:09:27.522Z,97240.47
2018-04-02T06:09:59.146Z,97241.71
2018-04-02T06:10:30.800Z,97251.84
2018-04-02T06:11:02.452Z,97246.67
2018-04-02T06:11:34.100Z,97246.72